Lake Clear, NY

7:30 PM EDT on July 26, 2016 (GMT -0400)
Adirondack Regional | | Change Station

Elev 1660 ft 44.39 °N, 74.21 °W | Updated 39 minutes ago

Scattered Clouds
Scattered Clouds
75 °F
Feels Like 75 °F
N
4
Wind Variable Wind from Variable

Today
High -- | Low -- °F
--% Chance of Precip.
Yesterday
High -- | Low -- °F
Precip. -- in
Pressure 29.91 in
Visibility 10.0 miles
Clouds Scattered Clouds 5500 ft
Dew Point 57 °F
Humidity 53%
Rainfall 0.00 in
Snow Depth Not available.
5:37 AM 8:28 PM
Waning Gibbous, 50% visible
METAR KSLK 262251Z AUTO VRB03KT 10SM SCT055 24/14 A2993 RMK AO2 SLP128 T02390139
Pressure 29.91 in
Visibility 10.0 miles
Clouds Scattered Clouds 5500 ft
Dew Point 57 °F
Humidity 53%
Rainfall 0.00 in
Snow Depth Not available.
5:37 AM 8:28 PM
Waning Gibbous, 50% visible
METAR KSLK 262251Z AUTO VRB03KT 10SM SCT055 24/14 A2993 RMK AO2 SLP128 T02390139

10-Day Weather Forecast

Almanac

Astronomy

Jul. 26, 2016 Rise Set
Actual Time
Civil Twilight
Nautical Twilight
Astronomical Twilight
Moon
Length of Visible Light
Length of Day
Tomorrow will be .
, % of the Moon is Illuminated

Today's Extremes

State Highs State Lows

Community

WunderPhotos

Upload Photos

1,927,729 photos uploaded!

WunderBlog® & News

Nearby

Air Quality

  Air Quality AQ Index Pollutant
Not available.

Snow Depth

Station Depth Elevation

Earthquake Activity

City Distance Mag. Time & Date
Minimum magnitude displayed is 2.5.

Coastal Water Temperatures

Place Temperature

Stations

Nearby Weather Stations

Station Location Temp. Windchill Dew Point Humidity Wind Precip. Elev Updated Type
                   

Watches & Warnings

There are currently no watches in effect.